createdAt,value
2022-11-08T00:00:04.002Z,4.80
2022-11-08T00:01:04.876Z,12.20
2022-11-08T00:02:05.948Z,7.10
2022-11-08T00:03:06.500Z,5.20
2022-11-08T00:04:07.342Z,5.90
2022-11-08T00:05:08.252Z,16.20
2022-11-08T00:06:09.118Z,72.00
2022-11-08T00:07:10.000Z,76.50
2022-11-08T00:08:10.888Z,17.30
2022-11-08T00:09:11.766Z,6.30
2022-11-08T00:10:12.668Z,12.30
2022-11-08T00:11:13.564Z,16.40
2022-11-08T00:12:14.452Z,12.10
2022-11-08T00:13:15.335Z,22.30
2022-11-08T00:14:16.221Z,6.50
2022-11-08T00:15:17.099Z,23.20
2022-11-08T00:16:17.989Z,6.40
2022-11-08T00:17:18.868Z,2.20
2022-11-08T00:18:20.151Z,1.80
2022-11-08T00:19:20.573Z,15.40
2022-11-08T00:20:21.484Z,14.50
2022-11-08T00:21:22.337Z,4.20
2022-11-08T00:22:23.221Z,5.40
2022-11-08T00:23:24.101Z,15.20
2022-11-08T00:24:24.982Z,11.70
2022-11-08T00:25:25.864Z,14.70
2022-11-08T00:26:26.746Z,3.60
2022-11-08T00:27:27.629Z,6.30
2022-11-08T00:28:28.513Z,18.90
2022-11-08T00:29:29.384Z,9.20
2022-11-08T00:30:30.279Z,3.00
2022-11-08T00:31:31.162Z,2.60
2022-11-08T00:32:32.045Z,3.50
2022-11-08T00:33:32.916Z,7.10
2022-11-08T00:34:33.803Z,4.80
2022-11-08T00:35:34.712Z,5.00
2022-11-08T00:36:35.572Z,4.40
2022-11-08T00:37:36.455Z,8.90
2022-11-08T00:38:37.347Z,10.80
2022-11-08T00:39:38.222Z,11.00
2022-11-08T00:40:39.118Z,8.40
2022-11-08T00:41:39.999Z,13.30
2022-11-08T00:42:40.880Z,12.20
2022-11-08T00:43:41.758Z,5.00
2022-11-08T00:44:42.643Z,6.00
2022-11-08T00:45:43.546Z,30.10
2022-11-08T00:46:44.430Z,7.80
2022-11-08T00:47:45.309Z,6.40
2022-11-08T00:48:46.192Z,5.70
2022-11-08T00:49:47.068Z,8.90
2022-11-08T00:50:47.979Z,6.10
2022-11-08T00:51:48.842Z,4.80
2022-11-08T00:52:49.725Z,6.40
2022-11-08T00:53:50.614Z,8.60
2022-11-08T00:54:51.489Z,8.30
2022-11-08T00:55:52.382Z,17.60
2022-11-08T00:56:53.263Z,19.80
2022-11-08T00:57:59.698Z,14.90
2022-11-08T00:58:55.915Z,5.00
2022-11-08T00:59:55.802Z,18.60
2022-11-08T01:00:56.753Z,16.60
2022-11-08T01:01:57.734Z,11.10
2022-11-08T01:02:58.143Z,7.60
2022-11-08T01:03:59.031Z,6.30
2022-11-08T01:04:59.914Z,7.20
2022-11-08T01:06:00.827Z,5.50
2022-11-08T01:07:01.687Z,7.30
2022-11-08T01:08:02.572Z,4.40
2022-11-08T01:09:03.454Z,3.90
2022-11-08T01:10:04.340Z,4.60
2022-11-08T01:11:05.230Z,10.80
2022-11-08T01:12:06.110Z,25.40
2022-11-08T01:13:06.991Z,14.20
2022-11-08T01:14:07.863Z,14.90
2022-11-08T01:15:08.835Z,8.80
2022-11-08T01:16:09.718Z,6.50
2022-11-08T01:17:10.599Z,8.40
2022-11-08T01:18:11.476Z,50.10
2022-11-08T01:19:12.357Z,4.40
2022-11-08T01:20:13.243Z,11.20
2022-11-08T01:21:14.145Z,17.20
2022-11-08T01:22:14.999Z,4.70
2022-11-08T01:23:15.884Z,5.60
2022-11-08T01:24:16.758Z,2.10
2022-11-08T01:25:17.640Z,25.00
2022-11-08T01:26:18.537Z,19.40
2022-11-08T01:27:19.424Z,4.70
2022-11-08T01:28:20.753Z,15.40
2022-11-08T01:29:20.831Z,15.90
2022-11-08T01:30:21.702Z,38.00
2022-11-08T01:31:22.593Z,7.10
2022-11-08T01:32:23.466Z,7.40
2022-11-08T01:33:24.349Z,7.80
2022-11-08T01:34:25.237Z,55.00
2022-11-08T01:35:26.114Z,5.10
2022-11-08T01:36:27.029Z,2.70
2022-11-08T01:37:27.895Z,16.30
2022-11-08T01:38:28.772Z,8.50
2022-11-08T01:39:29.656Z,2.70
2022-11-08T01:40:30.542Z,7.40
2022-11-08T01:41:31.431Z,4.60
2022-11-08T01:42:32.317Z,7.00
2022-11-08T01:43:33.199Z,16.60
2022-11-08T01:44:34.078Z,3.30
2022-11-08T01:45:34.959Z,2.30
2022-11-08T01:46:35.848Z,3.90
2022-11-08T01:47:36.724Z,3.40
2022-11-08T01:48:37.609Z,4.80
2022-11-08T01:49:38.489Z,3.90
2022-11-08T01:50:39.375Z,5.80
2022-11-08T01:51:40.291Z,3.80
2022-11-08T01:52:41.150Z,1.70
2022-11-08T01:53:42.029Z,2.70
2022-11-08T01:54:42.913Z,1.90
2022-11-08T01:55:43.797Z,2.50
2022-11-08T01:56:44.691Z,2.30
2022-11-08T01:57:45.574Z,2.40
2022-11-08T01:58:46.466Z,3.00
2022-11-08T01:59:47.353Z,1.20
2022-11-08T02:00:48.282Z,1.30
2022-11-08T02:01:49.324Z,2.30
2022-11-08T02:02:49.738Z,1.80
2022-11-08T02:03:50.620Z,1.70
2022-11-08T02:04:51.503Z,3.90
2022-11-08T02:05:52.387Z,1.90
2022-11-08T02:06:53.288Z,2.00
2022-11-08T02:07:54.149Z,2.90
2022-11-08T02:08:55.032Z,2.80
2022-11-08T02:09:55.917Z,2.70
2022-11-08T02:10:56.797Z,5.50
2022-11-08T02:11:57.687Z,5.40
2022-11-08T02:13:02.565Z,5.00
2022-11-08T02:14:00.340Z,4.00
2022-11-08T02:15:00.222Z,5.70
2022-11-08T02:16:01.119Z,5.10
2022-11-08T02:17:02.026Z,2.90
2022-11-08T02:18:02.921Z,4.30
2022-11-08T02:19:03.799Z,4.40
2022-11-08T02:20:04.718Z,5.50
2022-11-08T02:21:05.555Z,5.70
2022-11-08T02:22:06.462Z,6.30
2022-11-08T02:23:07.318Z,4.60
2022-11-08T02:24:08.204Z,8.10
2022-11-08T02:25:09.080Z,9.30
2022-11-08T02:26:09.959Z,8.60
2022-11-08T02:27:10.841Z,14.20
2022-11-08T02:28:11.722Z,7.50
2022-11-08T02:29:12.595Z,6.40
2022-11-08T02:30:13.484Z,6.10
2022-11-08T02:31:14.361Z,6.00
2022-11-08T02:32:15.253Z,26.60
2022-11-08T02:33:16.126Z,23.30
2022-11-08T02:34:17.015Z,7.60
2022-11-08T02:35:17.894Z,6.70
2022-11-08T02:36:18.774Z,19.70
2022-11-08T02:37:19.687Z,9.00
2022-11-08T02:38:20.837Z,3.60
2022-11-08T02:39:21.431Z,4.60
2022-11-08T02:40:22.313Z,9.00
2022-11-08T02:41:23.200Z,4.20
2022-11-08T02:42:24.089Z,3.40
2022-11-08T02:43:24.971Z,7.10
2022-11-08T02:44:25.856Z,5.00
2022-11-08T02:45:26.736Z,5.20
2022-11-08T02:46:27.624Z,4.30
2022-11-08T02:47:28.517Z,12.70
2022-11-08T02:48:29.394Z,5.50
2022-11-08T02:49:30.277Z,5.10
2022-11-08T02:50:31.169Z,4.40
2022-11-08T02:51:32.042Z,5.40
2022-11-08T02:52:32.953Z,3.60
2022-11-08T02:53:33.819Z,7.10
2022-11-08T02:54:34.722Z,7.80
2022-11-08T02:55:35.621Z,4.90
2022-11-08T02:56:36.533Z,7.70
2022-11-08T02:57:37.444Z,3.20
2022-11-08T02:58:38.331Z,3.10
2022-11-08T02:59:39.232Z,3.90
2022-11-08T03:00:40.127Z,4.20
2022-11-08T03:01:41.198Z,2.80
2022-11-08T03:02:41.656Z,2.30
2022-11-08T03:03:42.496Z,2.30
2022-11-08T03:04:43.384Z,2.50
2022-11-08T03:05:44.260Z,2.90
2022-11-08T03:06:45.144Z,3.00
2022-11-08T03:07:46.056Z,2.90
2022-11-08T03:08:46.917Z,2.60
2022-11-08T03:09:47.802Z,3.10
2022-11-08T03:10:48.687Z,2.90
2022-11-08T03:11:49.573Z,3.50
2022-11-08T03:12:50.451Z,3.90
2022-11-08T03:13:51.332Z,3.60
2022-11-08T03:14:52.205Z,2.40
2022-11-08T03:15:53.086Z,2.30
2022-11-08T03:16:53.969Z,2.10
2022-11-08T03:17:54.863Z,1.80
2022-11-08T03:18:55.739Z,2.40
2022-11-08T03:19:56.620Z,11.90
2022-11-08T03:20:57.502Z,2.20
2022-11-08T03:21:58.392Z,1.70
2022-11-08T03:22:59.324Z,1.60
2022-11-08T03:24:00.196Z,1.70
2022-11-08T03:25:01.119Z,1.50
2022-11-08T03:26:01.982Z,3.00
2022-11-08T03:27:02.869Z,3.10
2022-11-08T03:28:03.783Z,1.40
2022-11-08T03:29:04.659Z,4.70
2022-11-08T03:30:05.553Z,2.00
2022-11-08T03:31:06.437Z,12.60
2022-11-08T03:32:07.330Z,6.00
2022-11-08T03:33:08.210Z,7.10
2022-11-08T03:34:09.091Z,2.80
2022-11-08T03:35:09.978Z,5.70
2022-11-08T03:36:10.860Z,1.70
2022-11-08T03:37:11.745Z,1.60
2022-11-08T03:38:12.655Z,2.20
2022-11-08T03:39:13.505Z,2.30
2022-11-08T03:40:14.390Z,2.30
2022-11-08T03:41:15.275Z,6.70
2022-11-08T03:42:16.154Z,1.10
2022-11-08T03:43:17.057Z,1.30
2022-11-08T03:44:17.933Z,1.90
2022-11-08T03:45:18.819Z,1.90
2022-11-08T03:46:19.700Z,3.10
2022-11-08T03:47:20.587Z,1.20
2022-11-08T03:48:21.731Z,1.50
2022-11-08T03:49:22.075Z,1.60
2022-11-08T03:50:22.942Z,2.90
2022-11-08T03:51:23.835Z,9.00
2022-11-08T03:52:24.737Z,8.50
2022-11-08T03:53:25.655Z,10.60
2022-11-08T03:54:26.517Z,2.70
2022-11-08T03:55:27.409Z,3.10
2022-11-08T03:56:28.292Z,2.90
2022-11-08T03:57:29.168Z,4.40
2022-11-08T03:58:30.057Z,5.70
2022-11-08T03:59:30.939Z,6.40
2022-11-08T04:00:31.822Z,5.90
2022-11-08T04:01:32.866Z,6.90
2022-11-08T04:02:33.298Z,5.70
2022-11-08T04:03:34.186Z,6.60
2022-11-08T04:04:35.065Z,3.70
2022-11-08T04:05:35.950Z,4.10
2022-11-08T04:06:36.827Z,4.20
2022-11-08T04:07:37.710Z,4.60
2022-11-08T04:08:38.623Z,4.10
2022-11-08T04:09:39.472Z,4.20
2022-11-08T04:10:40.353Z,5.10
2022-11-08T04:11:41.241Z,3.50
2022-11-08T04:12:42.153Z,2.50
2022-11-08T04:13:43.026Z,2.40
2022-11-08T04:14:43.925Z,2.10
2022-11-08T04:15:44.798Z,2.90
2022-11-08T04:16:45.794Z,2.40
2022-11-08T04:17:46.663Z,2.70
2022-11-08T04:18:47.559Z,2.20
2022-11-08T04:19:48.442Z,1.40
2022-11-08T04:20:49.364Z,0.90
2022-11-08T04:21:50.247Z,1.80
2022-11-08T04:22:51.149Z,1.30
2022-11-08T04:23:52.073Z,1.50
2022-11-08T04:24:52.954Z,1.10
2022-11-08T04:25:53.859Z,2.20
2022-11-08T04:26:54.757Z,0.80
2022-11-08T04:27:55.669Z,1.10
2022-11-08T04:28:56.579Z,2.00
2022-11-08T04:29:57.471Z,2.00
2022-11-08T04:30:58.371Z,1.20
2022-11-08T04:31:59.275Z,1.20
2022-11-08T04:33:00.175Z,1.70
2022-11-08T04:34:01.080Z,1.80
2022-11-08T04:35:01.981Z,1.30
2022-11-08T04:36:02.891Z,1.00
2022-11-08T04:37:03.792Z,1.80
2022-11-08T04:38:04.687Z,1.40
2022-11-08T04:39:05.622Z,0.70
2022-11-08T04:40:06.498Z,1.00
2022-11-08T04:41:07.397Z,3.10
2022-11-08T04:42:08.271Z,3.70
2022-11-08T04:43:09.170Z,1.30
2022-11-08T04:44:10.067Z,1.20
2022-11-08T04:45:10.954Z,1.30
2022-11-08T04:46:11.823Z,1.10
2022-11-08T04:47:12.708Z,2.00
2022-11-08T04:48:13.589Z,2.60
2022-11-08T04:49:14.482Z,1.20
2022-11-08T04:50:15.365Z,3.00
2022-11-08T04:51:16.268Z,3.60
2022-11-08T04:52:17.132Z,4.60
2022-11-08T04:53:18.014Z,2.60
2022-11-08T04:54:18.925Z,4.30
2022-11-08T04:55:19.793Z,3.70
2022-11-08T04:56:20.676Z,3.50
2022-11-08T04:57:21.555Z,2.80
2022-11-08T04:58:22.440Z,3.20
2022-11-08T04:59:23.330Z,22.10
2022-11-08T05:00:24.213Z,12.60
2022-11-08T05:01:25.255Z,5.60
2022-11-08T05:02:25.805Z,5.50
2022-11-08T05:03:26.182Z,21.20
2022-11-08T05:04:27.081Z,8.90
2022-11-08T05:05:27.959Z,51.90
2022-11-08T05:06:28.848Z,29.00
2022-11-08T05:07:29.730Z,26.40
2022-11-08T05:08:30.608Z,8.30
2022-11-08T05:09:31.516Z,5.90
2022-11-08T05:10:32.375Z,2.30
2022-11-08T05:11:33.255Z,2.30
2022-11-08T05:12:34.139Z,2.10
2022-11-08T05:13:35.019Z,1.80
2022-11-08T05:14:35.915Z,2.20
2022-11-08T05:15:36.796Z,4.30
2022-11-08T05:16:37.679Z,6.80
2022-11-08T05:17:38.563Z,8.40
2022-11-08T05:18:41.876Z,5.20
2022-11-08T05:19:40.025Z,5.30
2022-11-08T05:20:40.914Z,40.50
2022-11-08T05:21:41.794Z,64.50
2022-11-08T05:22:42.678Z,56.40
2022-11-08T05:23:43.560Z,35.40
2022-11-08T05:24:44.496Z,22.50
2022-11-08T05:25:45.336Z,12.60
2022-11-08T05:26:46.221Z,4.20
2022-11-08T05:27:47.100Z,4.40
2022-11-08T05:28:47.984Z,4.00
2022-11-08T05:29:48.865Z,3.30
2022-11-08T05:30:49.753Z,3.30
2022-11-08T05:31:50.632Z,4.20
2022-11-08T05:32:51.523Z,4.40
2022-11-08T05:33:52.409Z,2.40
2022-11-08T05:34:53.291Z,3.20
2022-11-08T05:35:54.175Z,1.60
2022-11-08T05:36:55.085Z,2.20
2022-11-08T05:37:55.932Z,1.80
2022-11-08T05:38:56.824Z,1.50
2022-11-08T05:39:57.722Z,1.30
2022-11-08T05:40:58.574Z,0.80
2022-11-08T05:41:59.420Z,2.70
2022-11-08T05:43:00.305Z,1.10
2022-11-08T05:44:01.160Z,2.50
2022-11-08T05:45:06.562Z,2.00
2022-11-08T05:46:03.831Z,0.80
2022-11-08T05:47:03.705Z,1.70
2022-11-08T05:48:04.587Z,0.60
2022-11-08T05:49:05.582Z,2.20
2022-11-08T05:50:06.444Z,1.10
2022-11-08T05:51:07.287Z,1.50
2022-11-08T05:52:08.046Z,1.60
2022-11-08T05:53:08.865Z,3.10
2022-11-08T05:54:09.707Z,2.70
2022-11-08T05:55:10.547Z,3.10
2022-11-08T05:56:11.358Z,1.40
2022-11-08T05:57:12.189Z,2.00
2022-11-08T05:58:13.026Z,1.30
2022-11-08T05:59:13.855Z,1.80
2022-11-08T06:00:14.686Z,1.30
2022-11-08T06:01:15.517Z,1.00
2022-11-08T06:02:16.468Z,2.20
2022-11-08T06:03:19.766Z,1.40
2022-11-08T06:04:19.005Z,2.90
2022-11-08T06:05:18.833Z,1.70
2022-11-08T06:06:19.697Z,1.20
2022-11-08T06:07:20.492Z,2.00
2022-11-08T06:08:21.405Z,2.70
2022-11-08T06:09:22.220Z,1.70
2022-11-08T06:10:23.065Z,1.80
2022-11-08T06:11:23.913Z,2.50
2022-11-08T06:12:24.695Z,1.90
2022-11-08T06:13:25.535Z,2.30
2022-11-08T06:14:26.364Z,2.00
2022-11-08T06:15:27.183Z,1.70
2022-11-08T06:16:28.014Z,1.60
2022-11-08T06:17:30.176Z,1.80
2022-11-08T06:18:29.626Z,2.90
2022-11-08T06:19:30.455Z,1.80
2022-11-08T06:20:31.283Z,1.60
2022-11-08T06:21:32.119Z,2.60
2022-11-08T06:22:32.949Z,1.90
2022-11-08T06:23:33.788Z,2.00
2022-11-08T06:24:34.616Z,1.40
2022-11-08T06:25:35.457Z,3.30
2022-11-08T06:26:36.268Z,2.40
2022-11-08T06:27:37.096Z,2.00
2022-11-08T06:28:37.933Z,5.60
2022-11-08T06:29:38.501Z,1.90
2022-11-08T06:30:39.329Z,4.70
2022-11-08T06:31:43.047Z,1.90
2022-11-08T06:32:41.091Z,2.70
2022-11-08T06:33:41.919Z,3.50
2022-11-08T06:34:42.748Z,1.90
2022-11-08T06:35:43.578Z,1.90
2022-11-08T06:36:44.394Z,3.20
2022-11-08T06:37:45.215Z,3.70
2022-11-08T06:38:46.051Z,2.30
2022-11-08T06:39:46.886Z,2.90
2022-11-08T06:40:47.729Z,1.50
2022-11-08T06:41:48.530Z,1.50
2022-11-08T06:42:49.365Z,2.30
2022-11-08T06:43:50.184Z,2.60
2022-11-08T06:44:51.011Z,2.90
2022-11-08T06:45:51.742Z,2.30
2022-11-08T06:46:52.569Z,3.00
2022-11-08T06:47:53.390Z,2.10
2022-11-08T06:48:54.229Z,1.90
2022-11-08T06:49:55.051Z,1.70
2022-11-08T06:50:55.897Z,1.40
2022-11-08T06:51:56.697Z,1.20
2022-11-08T06:52:57.524Z,2.20
2022-11-08T06:53:58.354Z,4.10
2022-11-08T06:54:59.183Z,2.00
2022-11-08T06:56:00.026Z,1.40
2022-11-08T06:57:00.831Z,2.70
2022-11-08T06:58:01.652Z,3.40
2022-11-08T06:59:02.490Z,5.90
2022-11-08T07:00:03.333Z,2.90
2022-11-08T07:01:04.162Z,3.10
2022-11-08T07:02:05.114Z,3.60
2022-11-08T07:03:06.031Z,4.10
2022-11-08T07:04:06.868Z,4.40
2022-11-08T07:05:07.695Z,4.40
2022-11-08T07:06:08.525Z,4.00
2022-11-08T07:07:09.353Z,3.10
2022-11-08T07:08:10.186Z,3.20
2022-11-08T07:09:11.013Z,2.90
2022-11-08T07:10:11.836Z,3.10
2022-11-08T07:11:12.685Z,3.50
2022-11-08T07:12:13.493Z,3.80
2022-11-08T07:13:14.331Z,4.60
2022-11-08T07:14:15.160Z,3.70
2022-11-08T07:15:15.979Z,4.90
2022-11-08T07:16:16.807Z,3.30
2022-11-08T07:17:17.629Z,4.30
2022-11-08T07:18:18.544Z,3.10
2022-11-08T07:19:19.335Z,2.40
2022-11-08T07:20:20.171Z,3.30
2022-11-08T07:21:20.986Z,3.40
2022-11-08T07:22:21.814Z,3.00
2022-11-08T07:23:23.217Z,4.30
2022-11-08T07:24:23.288Z,3.20
2022-11-08T07:25:24.102Z,3.10
2022-11-08T07:26:24.950Z,2.60
2022-11-08T07:27:25.761Z,1.50
2022-11-08T07:28:26.604Z,1.60
2022-11-08T07:29:27.434Z,3.90
2022-11-08T07:30:28.336Z,2.10
2022-11-08T07:31:29.143Z,2.00
2022-11-08T07:32:29.973Z,1.90
2022-11-08T07:33:30.809Z,4.10
2022-11-08T07:34:31.638Z,1.40
2022-11-08T07:35:32.460Z,4.00
2022-11-08T07:36:33.289Z,4.30
2022-11-08T07:37:34.108Z,2.50
2022-11-08T07:38:34.947Z,2.10
2022-11-08T07:39:35.778Z,4.70
2022-11-08T07:40:36.608Z,4.10
2022-11-08T07:41:37.453Z,2.20
2022-11-08T07:43:04.746Z,1.70
2022-11-08T07:43:39.990Z,2.70
2022-11-08T07:44:39.821Z,8.90
2022-11-08T07:45:40.641Z,5.10
2022-11-08T07:46:41.463Z,3.10
2022-11-08T07:47:42.284Z,1.60
2022-11-08T07:48:43.125Z,3.70
2022-11-08T07:49:43.951Z,4.10
2022-11-08T07:50:44.780Z,2.70
2022-11-08T07:51:45.602Z,1.20
2022-11-08T07:52:46.430Z,3.90
2022-11-08T07:53:47.272Z,2.50
2022-11-08T07:54:48.099Z,2.80
2022-11-08T07:55:48.932Z,5.90
2022-11-08T07:56:49.776Z,3.10
2022-11-08T07:57:50.608Z,1.80
2022-11-08T07:58:51.447Z,1.50
2022-11-08T07:59:52.277Z,2.30
2022-11-08T08:00:53.105Z,1.70
2022-11-08T08:01:54.010Z,4.20
2022-11-08T08:02:54.962Z,10.10
2022-11-08T08:03:55.802Z,8.20
2022-11-08T08:04:56.629Z,4.20
2022-11-08T08:06:01.086Z,1.30
2022-11-08T08:06:58.378Z,7.50
2022-11-08T08:07:59.237Z,4.80
2022-11-08T08:09:00.049Z,4.70
2022-11-08T08:10:00.879Z,2.10
2022-11-08T08:11:01.719Z,2.30
2022-11-08T08:12:02.557Z,1.60
2022-11-08T08:13:03.391Z,4.30
2022-11-08T08:14:04.230Z,2.20
2022-11-08T08:15:05.058Z,3.30
2022-11-08T08:16:05.886Z,2.30
2022-11-08T08:17:06.743Z,1.00
2022-11-08T08:18:07.555Z,2.50
2022-11-08T08:19:08.383Z,1.80
2022-11-08T08:20:09.204Z,1.30
2022-11-08T08:21:10.060Z,2.40
2022-11-08T08:22:10.940Z,1.90
2022-11-08T08:23:11.784Z,2.20
2022-11-08T08:24:12.613Z,2.60
2022-11-08T08:25:13.462Z,2.80
2022-11-08T08:26:14.300Z,2.00
2022-11-08T08:27:15.138Z,1.90
2022-11-08T08:28:15.961Z,1.00
2022-11-08T08:29:16.795Z,1.40
2022-11-08T08:30:17.632Z,1.50
2022-11-08T08:31:18.452Z,1.20
2022-11-08T08:32:19.281Z,2.30
2022-11-08T08:33:29.189Z,3.60
2022-11-08T08:34:21.857Z,3.00
2022-11-08T08:35:22.712Z,2.60
2022-11-08T08:36:22.623Z,3.10
2022-11-08T08:37:23.399Z,1.80
2022-11-08T08:38:24.231Z,2.90
2022-11-08T08:39:25.099Z,2.40
2022-11-08T08:40:25.930Z,2.30
2022-11-08T08:41:26.748Z,1.20
2022-11-08T08:42:27.607Z,1.30
2022-11-08T08:43:28.429Z,1.20
2022-11-08T08:44:29.258Z,0.90
2022-11-08T08:45:30.100Z,1.00
2022-11-08T08:46:30.994Z,0.90
2022-11-08T08:47:31.783Z,2.70
2022-11-08T08:48:32.613Z,3.30
2022-11-08T08:49:33.462Z,2.00
2022-11-08T08:50:34.283Z,0.90
2022-11-08T08:51:35.112Z,1.90
2022-11-08T08:52:35.950Z,0.60
2022-11-08T08:53:36.778Z,0.90
2022-11-08T08:54:37.625Z,1.30
2022-11-08T08:55:38.455Z,1.30
2022-11-08T08:56:39.284Z,3.20
2022-11-08T08:57:40.145Z,1.30
2022-11-08T08:58:41.247Z,3.80
2022-11-08T09:01:43.985Z,2.00
2022-11-08T09:02:43.808Z,1.30
2022-11-08T09:03:44.641Z,1.30
2022-11-08T09:04:45.488Z,1.40
2022-11-08T09:05:46.318Z,1.70
2022-11-08T09:06:47.231Z,1.10
2022-11-08T09:07:48.078Z,2.10
2022-11-08T09:08:48.914Z,2.50
2022-11-08T09:09:49.786Z,1.50
2022-11-08T09:10:50.619Z,2.20
2022-11-08T09:11:51.449Z,1.70
2022-11-08T09:12:52.302Z,2.30
2022-11-08T09:13:53.112Z,3.00
2022-11-08T09:14:53.951Z,2.30
2022-11-08T09:15:54.781Z,2.80
2022-11-08T09:16:55.636Z,2.90
2022-11-08T09:17:56.785Z,4.00
2022-11-08T09:18:57.123Z,2.60
2022-11-08T09:19:57.966Z,1.70
2022-11-08T09:20:58.797Z,2.20
2022-11-08T09:21:59.676Z,2.40
2022-11-08T09:23:00.517Z,1.00
2022-11-08T09:24:01.360Z,2.00
2022-11-08T09:25:02.200Z,2.30
2022-11-08T09:26:03.029Z,1.80
2022-11-08T09:27:03.922Z,1.20
2022-11-08T09:28:04.790Z,4.30
2022-11-08T09:29:05.606Z,1.00
2022-11-08T09:30:06.465Z,0.90
2022-11-08T09:31:07.321Z,0.80
2022-11-08T09:32:08.170Z,2.30
2022-11-08T09:33:09.030Z,1.20
2022-11-08T09:34:09.823Z,1.30
2022-11-08T09:35:10.678Z,1.60
2022-11-08T09:36:11.507Z,1.40
2022-11-08T09:37:12.334Z,3.60
2022-11-08T09:38:13.165Z,2.10
2022-11-08T09:39:13.995Z,1.90
2022-11-08T09:41:15.637Z,1.50
2022-11-08T09:42:16.460Z,2.70
2022-11-08T09:43:17.644Z,0.60
2022-11-08T09:44:18.067Z,1.60
2022-11-08T09:45:18.909Z,0.70
2022-11-08T09:46:19.736Z,1.30
2022-11-08T09:47:20.571Z,1.90
2022-11-08T09:48:21.400Z,1.50
2022-11-08T09:49:22.232Z,1.00
2022-11-08T09:50:23.099Z,2.10
2022-11-08T09:51:23.941Z,2.60
2022-11-08T09:52:24.757Z,0.80
2022-11-08T09:53:25.583Z,4.50
2022-11-08T09:54:26.410Z,1.20
2022-11-08T09:55:27.239Z,4.00
2022-11-08T09:56:28.086Z,1.90
2022-11-08T09:57:28.900Z,2.00
2022-11-08T09:58:29.756Z,0.90
2022-11-08T09:59:30.560Z,1.20
2022-11-08T10:00:31.404Z,2.40
2022-11-08T10:01:32.280Z,4.10
2022-11-08T10:02:33.067Z,6.20
2022-11-08T10:03:33.898Z,5.70
2022-11-08T10:04:34.735Z,9.20
2022-11-08T10:05:35.557Z,9.90
2022-11-08T10:06:36.466Z,8.60
2022-11-08T10:07:37.284Z,9.10
2022-11-08T10:08:38.086Z,5.40
2022-11-08T10:09:38.914Z,5.60
2022-11-08T10:10:39.753Z,4.90
2022-11-08T10:11:40.575Z,6.00
2022-11-08T10:12:41.426Z,4.20
2022-11-08T10:13:42.284Z,6.10
2022-11-08T10:14:50.869Z,3.10
2022-11-08T10:15:44.801Z,4.60
2022-11-08T10:16:44.627Z,2.50
2022-11-08T10:17:45.456Z,2.20
2022-11-08T10:18:46.299Z,1.10
2022-11-08T10:19:47.146Z,1.10
2022-11-08T10:20:47.977Z,0.90
2022-11-08T10:21:48.797Z,0.50
2022-11-08T10:22:49.625Z,5.40
2022-11-08T10:23:50.443Z,2.00
2022-11-08T10:24:51.285Z,1.10
2022-11-08T10:25:52.109Z,3.00
2022-11-08T10:26:52.931Z,2.00
2022-11-08T10:27:54.036Z,1.70
2022-11-08T10:28:54.432Z,1.50
2022-11-08T10:29:55.269Z,0.90
2022-11-08T10:30:56.060Z,3.10
2022-11-08T10:31:56.877Z,3.20
2022-11-08T10:32:57.697Z,1.80
2022-11-08T10:33:58.517Z,2.00
2022-11-08T10:34:59.365Z,1.10
2022-11-08T10:36:02.538Z,2.50
2022-11-08T10:37:01.109Z,1.30
2022-11-08T10:38:01.928Z,1.20
2022-11-08T10:39:02.758Z,1.30
2022-11-08T10:40:03.593Z,0.80
2022-11-08T10:41:04.417Z,1.20
2022-11-08T10:42:05.235Z,1.80
2022-11-08T10:43:09.223Z,0.60
2022-11-08T10:44:06.834Z,1.40
2022-11-08T10:45:07.654Z,1.00
2022-11-08T10:46:08.473Z,0.80
2022-11-08T10:47:09.302Z,1.00
2022-11-08T10:48:10.120Z,3.20
2022-11-08T10:49:10.947Z,0.60
2022-11-08T10:50:11.787Z,1.50
2022-11-08T10:51:12.616Z,0.70
2022-11-08T10:52:13.446Z,1.60
2022-11-08T10:53:14.272Z,0.80
2022-11-08T10:54:15.104Z,1.00
2022-11-08T10:55:15.942Z,1.20
2022-11-08T10:56:16.787Z,1.50
2022-11-08T10:57:17.637Z,0.80
2022-11-08T10:58:18.826Z,1.20
2022-11-08T10:59:19.446Z,2.30
2022-11-08T11:00:20.219Z,1.80
2022-11-08T11:01:21.173Z,1.30
2022-11-08T11:02:22.090Z,1.60
2022-11-08T11:03:22.930Z,0.90
2022-11-08T11:04:23.749Z,3.00
2022-11-08T11:05:24.587Z,1.90
2022-11-08T11:06:25.594Z,2.40
2022-11-08T11:07:25.970Z,1.70
2022-11-08T11:08:26.799Z,0.70
2022-11-08T11:09:27.628Z,2.10
2022-11-08T11:10:28.456Z,0.70
2022-11-08T11:11:29.288Z,1.10
2022-11-08T11:12:30.107Z,1.00
2022-11-08T11:13:30.938Z,0.80
2022-11-08T11:14:31.783Z,2.00
2022-11-08T11:15:32.602Z,1.00
2022-11-08T11:16:33.428Z,0.50
2022-11-08T11:17:37.233Z,0.70
2022-11-08T11:18:35.963Z,1.30
2022-11-08T11:19:35.790Z,0.90
2022-11-08T11:20:36.619Z,0.50
2022-11-08T11:21:37.449Z,0.50
2022-11-08T11:22:38.266Z,1.00
2022-11-08T11:23:39.100Z,1.70
2022-11-08T11:24:39.933Z,1.10
2022-11-08T11:25:40.772Z,1.70
2022-11-08T11:26:41.601Z,0.90
2022-11-08T11:27:42.429Z,2.00
2022-11-08T11:28:43.256Z,1.20
2022-11-08T11:29:44.112Z,0.60
2022-11-08T11:30:44.924Z,2.20
2022-11-08T11:31:45.753Z,1.80
2022-11-08T11:32:46.632Z,4.60
2022-11-08T11:33:47.429Z,2.40
2022-11-08T11:34:48.247Z,3.20
2022-11-08T11:35:49.086Z,2.30
2022-11-08T11:36:49.919Z,1.80
2022-11-08T11:37:50.743Z,0.90
2022-11-08T11:38:51.570Z,1.90
2022-11-08T11:39:52.403Z,2.30
2022-11-08T11:40:53.339Z,0.90
2022-11-08T11:41:54.111Z,1.40
2022-11-08T11:42:54.937Z,0.70
2022-11-08T11:43:55.766Z,0.60
2022-11-08T11:44:56.619Z,1.10
2022-11-08T11:45:57.446Z,1.70
2022-11-08T11:46:58.275Z,2.00
2022-11-08T11:47:59.099Z,2.20
2022-11-08T11:48:59.924Z,1.70
2022-11-08T11:50:01.090Z,2.30
2022-11-08T11:51:01.478Z,1.40
2022-11-08T11:52:02.314Z,1.80
2022-11-08T11:53:03.142Z,0.50
2022-11-08T11:54:03.960Z,1.10
2022-11-08T11:55:04.787Z,0.70
2022-11-08T11:56:05.616Z,1.10
2022-11-08T11:57:06.446Z,2.10
2022-11-08T11:58:07.263Z,1.00
2022-11-08T11:59:08.092Z,2.50
2022-11-08T12:00:08.933Z,1.00
2022-11-08T12:01:14.290Z,1.80
2022-11-08T12:02:11.486Z,1.00
2022-11-08T12:03:11.291Z,2.10
2022-11-08T12:04:12.114Z,0.90
2022-11-08T12:05:12.941Z,1.10
2022-11-08T12:06:13.780Z,2.20
2022-11-08T12:07:14.662Z,2.00
2022-11-08T12:08:15.637Z,3.10
2022-11-08T12:09:16.177Z,1.00
2022-11-08T12:10:16.997Z,1.40
2022-11-08T12:11:17.996Z,1.90
2022-11-08T12:12:18.815Z,0.70
2022-11-08T12:13:19.642Z,1.90
2022-11-08T12:14:20.465Z,2.00
2022-11-08T12:15:21.310Z,2.70
2022-11-08T12:16:22.139Z,2.10
2022-11-08T12:17:22.965Z,0.60
2022-11-08T12:18:41.523Z,3.30
2022-11-08T12:19:25.492Z,0.80
2022-11-08T12:20:27.357Z,2.80
2022-11-08T12:21:25.898Z,0.70
2022-11-08T12:22:26.764Z,1.70
2022-11-08T12:23:27.608Z,1.20
2022-11-08T12:24:28.450Z,1.60
2022-11-08T12:25:29.428Z,0.80
2022-11-08T12:26:30.257Z,2.90
2022-11-08T12:27:31.086Z,0.90
2022-11-08T12:28:31.941Z,3.00
2022-11-08T12:29:32.777Z,2.50
2022-11-08T12:30:33.638Z,1.80
2022-11-08T12:31:34.445Z,0.70
2022-11-08T12:32:35.265Z,0.70
2022-11-08T12:33:36.092Z,1.10
2022-11-08T12:34:36.913Z,3.80
2022-11-08T12:35:37.762Z,0.80
2022-11-08T12:36:38.568Z,3.90
2022-11-08T12:37:39.404Z,0.80
2022-11-08T12:38:40.235Z,2.50
2022-11-08T12:39:41.068Z,0.60
2022-11-08T12:40:41.901Z,1.50
2022-11-08T12:41:42.730Z,1.70
2022-11-08T12:42:43.560Z,3.00
2022-11-08T12:43:44.385Z,1.70
2022-11-08T12:44:45.207Z,0.80
2022-11-08T12:45:46.066Z,1.00
2022-11-08T12:46:46.866Z,0.80
2022-11-08T12:47:47.693Z,2.20
2022-11-08T12:48:48.515Z,0.90
2022-11-08T12:49:49.350Z,4.10
2022-11-08T12:50:50.191Z,1.20
2022-11-08T12:51:51.018Z,2.70
2022-11-08T12:52:51.839Z,1.00
2022-11-08T12:53:52.667Z,2.00
2022-11-08T12:54:53.517Z,2.20
2022-11-08T12:55:54.337Z,2.00
2022-11-08T12:56:55.165Z,1.10
2022-11-08T12:57:55.992Z,0.80
2022-11-08T12:58:56.839Z,2.20
2022-11-08T12:59:57.677Z,1.40
2022-11-08T13:00:58.597Z,1.30
2022-11-08T13:01:59.386Z,2.90
2022-11-08T13:03:00.206Z,2.80
2022-11-08T13:04:05.852Z,4.30
2022-11-08T13:05:02.758Z,2.60
2022-11-08T13:06:02.586Z,1.90
2022-11-08T13:07:03.476Z,2.10
2022-11-08T13:08:04.321Z,0.90
2022-11-08T13:09:05.140Z,0.90
2022-11-08T13:10:07.861Z,0.70
2022-11-08T13:11:07.691Z,3.60
2022-11-08T13:12:07.522Z,1.70
2022-11-08T13:13:08.351Z,1.20
2022-11-08T13:14:09.181Z,0.90
2022-11-08T13:15:10.044Z,0.90
2022-11-08T13:16:11.007Z,0.70
2022-11-08T13:17:11.790Z,2.00
2022-11-08T13:18:12.618Z,2.70
2022-11-08T13:19:13.489Z,1.20
2022-11-08T13:20:14.377Z,0.60
2022-11-08T13:21:15.219Z,1.40
2022-11-08T13:22:16.023Z,0.80
2022-11-08T13:23:16.853Z,0.90
2022-11-08T13:24:42.789Z,1.60
2022-11-08T13:25:19.429Z,1.00
2022-11-08T13:26:19.281Z,2.40
2022-11-08T13:27:20.108Z,0.90
2022-11-08T13:28:20.941Z,0.90
2022-11-08T13:29:21.769Z,0.90
2022-11-08T13:30:22.609Z,1.60